Time;durP1;ratioP1;P1;durP2;ratioP2;P2;SDS_P1;SDS_P2;PMS_P1;PMS_P2;Temp;Humidity;BMP_temperature;BMP_pressure;BME280_temperature;BME280_humidity;BME280_pressure;Samples;Min_cycle;Max_cycle;Signal;HPM_P1;HPM_P2
2021/12/17 00:00:21;;;;;;;23.27;12.18;;;0.90;86.30;;;;;;5015758;28;20085;-76
2021/12/17 00:05:42;;;;;;;24.80;12.63;;;1.30;86.10;;;;;;5005008;28;20037;-75
2021/12/17 00:08:08;;;;;;;20.05;10.82;;;1.50;85.50;;;;;;5013190;28;20026;-75
2021/12/17 00:10:33;;;;;;;20.70;12.32;;;1.70;85.70;;;;;;5014632;28;20116;-75
2021/12/17 00:13:03;;;;;;;26.42;13.23;;;2.00;85.00;;;;;;5007981;28;20036;-75
2021/12/17 00:15:28;;;;;;;27.92;14.73;;;2.20;85.20;;;;;;5010618;28;20030;-75
2021/12/17 00:18:00;;;;;;;24.10;12.48;;;2.40;85.70;;;;;;5013585;28;20084;-75
2021/12/17 00:53:06;;;;;;;24.52;14.55;;;3.10;89.70;;;;;;5012024;28;20048;-76
2021/12/17 00:55:31;;;;;;;26.15;13.63;;;3.00;89.50;;;;;;5012806;28;20014;-76
2021/12/17 00:57:57;;;;;;;24.98;13.00;;;3.00;89.70;;;;;;5009375;28;20100;-76
2021/12/17 01:00:24;;;;;;;35.17;19.40;;;3.10;90.30;;;;;;5007993;28;20022;-76
2021/12/17 01:02:51;;;;;;;27.10;15.75;;;3.10;90.60;;;;;;5014975;28;20111;-75
2021/12/17 01:05:25;;;;;;;24.27;14.07;;;3.10;90.30;;;;;;5014948;28;20112;-74
2021/12/17 01:07:53;;;;;;;29.27;16.35;;;3.10;90.50;;;;;;5014054;28;20331;-73
2021/12/17 01:10:25;;;;;;;23.17;13.65;;;3.10;90.80;;;;;;5015595;28;20026;-73
2021/12/17 01:12:51;;;;;;;24.58;15.27;;;3.20;90.80;;;;;;5014692;28;20030;-75
2021/12/17 01:15:19;;;;;;;29.90;17.08;;;3.20;91.40;;;;;;5014023;28;20069;-76
2021/12/17 01:17:52;;;;;;;25.95;14.73;;;3.20;92.20;;;;;;5013333;28;20041;-75
2021/12/17 01:20:46;;;;;;;22.45;13.38;;;3.20;92.00;;;;;;5015231;28;20307;-75
2021/12/17 01:36:38;;;;;;;27.50;14.27;;;3.30;94.10;;;;;;5014096;28;20378;-75
2021/12/17 01:40:22;;;;;;;22.92;13.80;;;3.30;94.00;;;;;;5007918;28;20101;-75
2021/12/17 01:44:26;;;;;;;23.65;13.80;;;3.40;94.90;;;;;;5018548;28;20051;-75
2021/12/17 01:46:53;;;;;;;30.88;15.80;;;3.30;94.90;;;;;;5018134;28;20037;-75
2021/12/17 02:00:05;;;;;;;24.15;13.73;;;3.50;95.90;;;;;;5017740;28;20407;-75
2021/12/17 02:02:38;;;;;;;20.88;11.68;;;3.50;95.70;;;;;;5015374;28;20038;-75
2021/12/17 02:05:04;;;;;;;19.58;12.00;;;3.50;95.90;;;;;;5009389;28;20033;-76
2021/12/17 02:07:30;;;;;;;25.17;14.63;;;3.50;96.20;;;;;;5015048;28;20053;-76
2021/12/17 02:21:32;;;;;;;22.15;11.82;;;3.50;96.90;;;;;;5017130;28;20096;-76
2021/12/17 02:32:00;;;;;;;22.13;12.02;;;3.50;97.20;;;;;;5017250;28;20484;-77
2021/12/17 02:34:47;;;;;;;24.10;11.82;;;3.50;97.10;;;;;;5016511;28;20548;-76
2021/12/17 02:37:17;;;;;;;19.23;11.23;;;3.50;97.30;;;;;;5016011;28;20030;-77
2021/12/17 02:47:35;;;;;;;19.70;10.93;;;3.50;97.90;;;;;;5018688;28;20079;-77
2021/12/17 02:50:01;;;;;;;18.40;11.00;;;3.50;98.00;;;;;;5015454;28;20037;-76
2021/12/17 02:52:29;;;;;;;18.67;10.23;;;3.50;97.90;;;;;;5011270;28;20026;-76
2021/12/17 02:54:57;;;;;;;17.52;10.38;;;3.50;97.90;;;;;;5010530;28;20022;-76
2021/12/17 02:57:24;;;;;;;15.73;10.35;;;3.60;98.00;;;;;;5016284;28;20026;-76
2021/12/17 02:59:51;;;;;;;14.60;9.07;;;3.60;98.00;;;;;;5016470;28;20107;-76
2021/12/17 03:02:18;;;;;;;16.77;9.18;;;3.60;98.00;;;;;;5015596;28;20032;-75
2021/12/17 03:04:45;;;;;;;19.17;10.70;;;3.60;98.00;;;;;;5015975;28;20026;-76
2021/12/17 03:07:12;;;;;;;13.43;8.35;;;3.60;98.00;;;;;;5014607;28;20034;-76
2021/12/17 03:12:21;;;;;;;12.57;8.10;;;3.60;98.00;;;;;;5012301;28;20022;-76
2021/12/17 03:14:55;;;;;;;15.45;8.60;;;3.60;98.00;;;;;;5016595;28;20018;-76
2021/12/17 03:17:45;;;;;;;17.98;8.70;;;3.60;98.00;;;;;;5015934;28;20029;-75
2021/12/17 03:25:35;;;;;;;14.98;8.32;;;3.60;98.00;;;;;;5016585;28;20053;-76
2021/12/17 03:28:01;;;;;;;13.65;8.35;;;3.60;98.00;;;;;;5012015;28;20050;-75
2021/12/17 03:30:27;;;;;;;17.02;8.98;;;3.60;98.00;;;;;;5012751;28;20156;-75
2021/12/17 03:32:52;;;;;;;15.10;9.45;;;3.60;98.00;;;;;;5010367;28;20480;-75
2021/12/17 03:35:18;;;;;;;14.52;8.45;;;3.60;98.00;;;;;;5015832;28;20045;-75
2021/12/17 03:37:44;;;;;;;15.95;8.98;;;3.60;98.00;;;;;;5013924;28;20036;-75
2021/12/17 03:40:14;;;;;;;14.27;8.88;;;3.70;98.00;;;;;;5016527;28;20057;-76
2021/12/17 03:42:46;;;;;;;18.88;10.75;;;3.60;98.00;;;;;;5016644;28;20040;-75
2021/12/17 03:45:12;;;;;;;16.13;9.43;;;3.60;98.00;;;;;;5016447;28;20318;-75
2021/12/17 03:47:37;;;;;;;16.77;9.90;;;3.60;98.00;;;;;;5012725;28;20128;-76
2021/12/17 03:50:04;;;;;;;17.27;10.30;;;3.60;98.00;;;;;;5016125;28;20466;-75
2021/12/17 03:52:30;;;;;;;17.33;10.30;;;3.60;98.00;;;;;;5014873;28;20045;-75
2021/12/17 03:54:56;;;;;;;19.27;10.00;;;3.60;98.00;;;;;;5014773;28;20331;-75
2021/12/17 03:57:22;;;;;;;22.40;11.20;;;3.50;98.00;;;;;;5020973;28;20029;-76
2021/12/17 03:59:48;;;;;;;16.27;9.95;;;3.50;98.00;;;;;;5014996;28;20093;-76
2021/12/17 04:02:14;;;;;;;17.38;10.23;;;3.60;98.00;;;;;;5035042;28;20030;-77
2021/12/17 04:04:40;;;;;;;21.33;11.55;;;3.50;98.00;;;;;;5015412;28;20346;-75
2021/12/17 04:07:06;;;;;;;21.00;11.10;;;3.50;98.00;;;;;;5014953;28;20029;-75
2021/12/17 04:09:32;;;;;;;17.40;10.15;;;3.50;98.00;;;;;;5016050;28;20033;-76
2021/12/17 04:12:00;;;;;;;18.85;10.07;;;3.50;98.00;;;;;;5014834;28;20084;-75
2021/12/17 04:14:34;;;;;;;17.10;10.48;;;3.50;98.00;;;;;;5014523;28;20037;-76
2021/12/17 04:17:04;;;;;;;16.63;9.57;;;3.50;98.00;;;;;;5012257;28;20021;-76
2021/12/17 04:19:30;;;;;;;16.98;9.75;;;3.50;98.00;;;;;;5015454;28;20617;-77
2021/12/17 04:21:55;;;;;;;16.58;10.07;;;3.50;98.00;;;;;;5014766;28;20036;-75
2021/12/17 04:24:21;;;;;;;16.48;9.05;;;3.50;98.00;;;;;;5015283;28;20033;-76
2021/12/17 04:26:48;;;;;;;16.48;8.90;;;3.50;98.00;;;;;;5015297;28;20017;-76
2021/12/17 04:29:14;;;;;;;16.60;10.05;;;3.50;98.00;;;;;;5016231;28;20073;-75
2021/12/17 04:31:40;;;;;;;12.85;8.25;;;3.50;98.00;;;;;;5015096;28;20030;-75
2021/12/17 04:34:06;;;;;;;13.35;8.30;;;3.50;98.00;;;;;;5015026;28;20148;-76
2021/12/17 04:36:34;;;;;;;12.73;7.25;;;3.50;98.00;;;;;;5015681;28;20019;-76
2021/12/17 04:39:01;;;;;;;13.93;8.00;;;3.50;98.00;;;;;;5014361;28;20076;-76
2021/12/17 04:44:20;;;;;;;12.02;7.45;;;3.50;98.00;;;;;;5018726;28;20111;-75
2021/12/17 04:57:17;;;;;;;11.73;6.57;;;3.50;98.00;;;;;;5012318;28;20065;-75
2021/12/17 04:57:54;;;;;;;10.45;6.85;;;3.50;98.00;;;;;;5015585;28;20044;-76
2021/12/17 05:00:24;;;;;;;11.18;6.55;;;3.50;98.00;;;;;;5013449;28;20036;-76
2021/12/17 05:02:56;;;;;;;13.02;7.43;;;3.60;98.00;;;;;;5013512;28;20026;-76
2021/12/17 05:05:29;;;;;;;11.93;7.05;;;3.60;98.00;;;;;;5014323;28;20033;-75
2021/12/17 05:08:03;;;;;;;12.30;7.85;;;3.60;98.00;;;;;;5013790;28;20315;-75
2021/12/17 05:21:23;;;;;;;12.18;6.75;;;3.50;98.00;;;;;;5027175;28;20489;-74
2021/12/17 05:23:52;;;;;;;10.57;6.53;;;3.50;98.00;;;;;;5018299;28;20026;-74
2021/12/17 05:26:20;;;;;;;11.05;6.78;;;3.50;98.00;;;;;;5017128;28;20033;-75
2021/12/17 05:28:47;;;;;;;9.80;5.95;;;3.50;98.00;;;;;;5019172;28;20038;-76
2021/12/17 05:31:15;;;;;;;10.98;6.10;;;3.50;98.00;;;;;;5023438;28;20095;-76
2021/12/17 05:33:40;;;;;;;10.55;6.38;;;3.50;98.00;;;;;;5024298;28;20077;-77
2021/12/17 05:36:06;;;;;;;10.00;6.32;;;3.50;98.00;;;;;;5017611;28;20054;-76
2021/12/17 05:38:32;;;;;;;13.63;8.55;;;3.40;98.00;;;;;;5012385;28;20030;-76
2021/12/17 05:40:59;;;;;;;12.10;7.50;;;3.40;98.00;;;;;;5017785;28;20030;-76
2021/12/17 05:43:25;;;;;;;12.52;6.82;;;3.40;98.00;;;;;;5018661;28;20326;-75
2021/12/17 05:48:24;;;;;;;13.55;8.35;;;3.40;98.00;;;;;;5020784;28;20120;-75
2021/12/17 05:50:55;;;;;;;18.33;10.18;;;3.30;98.00;;;;;;5027806;28;20022;-76
2021/12/17 05:53:22;;;;;;;19.08;10.80;;;3.20;98.00;;;;;;5016903;28;20434;-76
2021/12/17 05:55:48;;;;;;;16.98;9.57;;;3.10;98.00;;;;;;5008192;28;20038;-75
2021/12/17 05:58:14;;;;;;;18.75;12.10;;;3.00;98.00;;;;;;5016230;28;20088;-75
2021/12/17 06:00:41;;;;;;;19.17;11.95;;;2.90;98.00;;;;;;5015747;28;20033;-74
2021/12/17 06:03:09;;;;;;;20.00;11.75;;;2.90;98.00;;;;;;5016963;28;20022;-74
2021/12/17 06:05:35;;;;;;;18.92;11.55;;;2.80;98.00;;;;;;5033385;28;20427;-75
2021/12/17 06:08:02;;;;;;;21.23;12.65;;;2.70;98.00;;;;;;5013322;28;20034;-76
2021/12/17 06:10:27;;;;;;;17.30;10.50;;;2.60;98.00;;;;;;5018142;28;20041;-75
2021/12/17 06:12:53;;;;;;;16.33;9.95;;;2.60;98.00;;;;;;5017296;28;20030;-76
2021/12/17 06:15:20;;;;;;;18.27;10.93;;;2.50;98.00;;;;;;5017221;28;20419;-76
2021/12/17 06:17:46;;;;;;;16.73;10.35;;;2.50;98.00;;;;;;5017693;28;20022;-77
2021/12/17 06:20:13;;;;;;;14.80;10.25;;;2.50;98.00;;;;;;5017951;28;20422;-76
2021/12/17 06:22:39;;;;;;;16.83;9.90;;;2.50;98.00;;;;;;5016450;28;20120;-76
2021/12/17 06:25:07;;;;;;;15.02;8.70;;;2.40;98.00;;;;;;5018413;28;20041;-76
2021/12/17 06:27:33;;;;;;;16.52;9.70;;;2.40;97.80;;;;;;5018542;28;20160;-75
2021/12/17 06:29:59;;;;;;;14.65;9.20;;;2.50;97.20;;;;;;5017954;28;20057;-76
2021/12/17 06:32:25;;;;;;;14.95;9.60;;;2.50;97.40;;;;;;5017397;28;20030;-75
2021/12/17 06:34:51;;;;;;;14.50;8.88;;;2.50;97.40;;;;;;5017970;28;20406;-76
2021/12/17 06:37:21;;;;;;;15.35;9.48;;;2.50;97.30;;;;;;5016307;28;20088;-76
2021/12/17 06:39:48;;;;;;;13.07;8.45;;;2.50;97.70;;;;;;5018466;28;20032;-76
2021/12/17 06:42:14;;;;;;;15.50;9.50;;;2.60;97.50;;;;;;5016653;28;20109;-77
2021/12/17 06:44:41;;;;;;;14.23;9.57;;;2.60;98.00;;;;;;5017106;28;20486;-76
2021/12/17 06:47:55;;;;;;;14.18;9.20;;;2.50;98.00;;;;;;5016594;28;20084;-76
2021/12/17 07:05:56;;;;;;;;;;;2.10;98.00;;;;;;5001462;28;20332;-76
2021/12/17 07:06:55;;;;;;;24.08;13.32;;;1.90;98.00;;;;;;5014079;28;20036;-77
2021/12/17 07:17:44;;;;;;;16.30;10.48;;;1.70;97.10;;;;;;5006618;28;20033;-76
2021/12/17 07:20:54;;;;;;;17.27;11.35;;;1.60;96.90;;;;;;5017147;28;20080;-75
2021/12/17 07:23:22;;;;;;;18.17;11.38;;;1.60;96.80;;;;;;5014256;28;20026;-77
2021/12/17 07:33:45;;;;;;;14.30;9.65;;;1.60;96.60;;;;;;5016941;28;20084;-77
2021/12/17 07:36:15;;;;;;;14.38;9.80;;;1.50;96.70;;;;;;5017196;28;20026;-77
2021/12/17 07:38:48;;;;;;;15.93;11.07;;;1.50;96.50;;;;;;5015748;28;20014;-76
2021/12/17 07:41:14;;;;;;;21.85;14.57;;;1.30;97.00;;;;;;5015871;28;20049;-77
2021/12/17 07:43:51;;;;;;;19.10;13.05;;;1.20;97.10;;;;;;5016398;28;20026;-78
2021/12/17 07:46:17;;;;;;;18.35;11.90;;;1.10;96.40;;;;;;5017026;28;20030;-78
2021/12/17 07:48:44;;;;;;;18.38;12.55;;;1.30;95.60;;;;;;5015896;28;20037;-76
2021/12/17 07:51:12;;;;;;;20.05;13.10;;;1.30;95.70;;;;;;5015513;28;20418;-77
2021/12/17 07:53:39;;;;;;;19.00;12.85;;;1.40;95.70;;;;;;5015694;28;20026;-77
2021/12/17 07:56:07;;;;;;;18.17;12.07;;;1.40;95.50;;;;;;5015753;28;20117;-77
2021/12/17 07:58:33;;;;;;;18.85;11.90;;;1.40;95.80;;;;;;5015471;28;20018;-77
2021/12/17 08:00:59;;;;;;;21.27;13.95;;;1.40;94.90;;;;;;5016070;28;20322;-76
2021/12/17 08:03:26;;;;;;;19.75;12.60;;;1.50;95.20;;;;;;5016649;28;20296;-76
2021/12/17 08:05:52;;;;;;;18.77;13.07;;;1.50;94.80;;;;;;5016306;28;20030;-76
2021/12/17 08:08:19;;;;;;;24.30;16.25;;;1.60;94.70;;;;;;5014471;28;20041;-76
2021/12/17 08:10:47;;;;;;;21.23;14.68;;;1.70;94.90;;;;;;5007764;28;20022;-77
2021/12/17 08:13:19;;;;;;;19.23;13.32;;;1.80;94.80;;;;;;5010668;28;20026;-76
2021/12/17 08:15:59;;;;;;;20.75;13.93;;;1.90;94.20;;;;;;5016851;28;20030;-75
2021/12/17 08:26:13;;;;;;;17.23;11.82;;;2.30;94.00;;;;;;5016478;28;20510;-77
2021/12/17 08:29:28;;;;;;;23.77;17.63;;;2.20;94.40;;;;;;5016105;28;20352;-77
2021/12/17 08:31:28;;;;;;;25.98;20.85;;;2.30;95.30;;;;;;5011789;28;20034;-77
2021/12/17 08:33:54;;;;;;;22.13;16.42;;;2.20;96.70;;;;;;5016073;28;20123;-78
2021/12/17 08:36:21;;;;;;;51.85;33.67;;;2.10;97.40;;;;;;5015039;28;20021;-78
2021/12/17 08:38:49;;;;;;;38.05;24.48;;;2.10;97.70;;;;;;5015238;28;20469;-76
2021/12/17 08:41:16;;;;;;;28.00;19.33;;;2.20;98.00;;;;;;5015703;28;20025;-77
2021/12/17 08:43:43;;;;;;;46.92;29.38;;;2.20;98.00;;;;;;5015204;28;20033;-77
2021/12/17 08:46:09;;;;;;;23.45;15.77;;;2.40;98.00;;;;;;5016074;28;20364;-77
2021/12/17 08:48:35;;;;;;;14.02;10.10;;;2.60;98.00;;;;;;5016170;28;20022;-76
2021/12/17 08:51:02;;;;;;;14.35;10.07;;;3.00;98.00;;;;;;5016051;28;20432;-76
2021/12/17 08:53:28;;;;;;;13.02;9.60;;;3.20;98.00;;;;;;5013840;28;20029;-77
2021/12/17 08:55:54;;;;;;;13.48;9.80;;;3.50;98.00;;;;;;5015902;28;20113;-77
2021/12/17 08:58:20;;;;;;;10.82;7.53;;;4.00;98.00;;;;;;5015939;28;20487;-77
2021/12/17 09:00:47;;;;;;;9.57;6.35;;;4.80;98.00;;;;;;5015926;28;20101;-77
2021/12/17 09:03:13;;;;;;;6.97;4.85;;;6.00;98.00;;;;;;5015576;28;20022;-77
2021/12/17 09:05:42;;;;;;;7.40;4.68;;;7.20;98.00;;;;;;5016056;28;20053;-78
2021/12/17 09:08:10;;;;;;;5.68;3.65;;;8.30;95.30;;;;;;5014484;28;20033;-77
2021/12/17 09:10:36;;;;;;;6.47;4.05;;;9.40;90.70;;;;;;5015896;28;20025;-77
2021/12/17 09:13:03;;;;;;;5.82;3.63;;;9.90;86.50;;;;;;5015234;28;20034;-77
2021/12/17 09:15:29;;;;;;;5.72;3.33;;;10.20;84.90;;;;;;5015050;28;20025;-77
2021/12/17 09:17:55;;;;;;;6.20;3.60;;;10.20;84.60;;;;;;5013495;28;20022;-77
2021/12/17 09:20:22;;;;;;;5.93;3.65;;;10.80;82.70;;;;;;5015727;28;20022;-77
2021/12/17 09:22:47;;;;;;;5.82;3.85;;;10.80;82.00;;;;;;5012865;28;20056;-77
2021/12/17 09:25:14;;;;;;;7.15;3.40;;;10.30;82.60;;;;;;5015821;28;20318;-77
2021/12/17 09:27:41;;;;;;;5.72;3.40;;;10.30;83.50;;;;;;5014930;28;20105;-78
2021/12/17 09:30:10;;;;;;;6.28;3.60;;;10.30;82.30;;;;;;5015075;28;20382;-77
2021/12/17 09:32:38;;;;;;;5.80;3.80;;;10.20;82.20;;;;;;5014352;28;20049;-79
2021/12/17 09:35:04;;;;;;;5.50;3.65;;;10.20;82.40;;;;;;5014950;28;20029;-77
2021/12/17 09:37:29;;;;;;;6.10;3.53;;;9.80;83.30;;;;;;5012995;28;20533;-78
2021/12/17 09:39:55;;;;;;;9.10;4.10;;;9.50;84.50;;;;;;5014779;28;20026;-77
2021/12/17 09:42:21;;;;;;;11.40;4.70;;;9.80;84.30;;;;;;5014766;28;20034;-77
2021/12/17 09:44:46;;;;;;;6.15;4.05;;;10.80;82.60;;;;;;5015767;28;20034;-78
2021/12/17 09:47:12;;;;;;;7.25;3.60;;;11.00;80.70;;;;;;5014779;28;20378;-77
2021/12/17 09:49:38;;;;;;;5.00;3.22;;;10.80;81.30;;;;;;5015263;28;20022;-77
2021/12/17 09:52:04;;;;;;;5.43;3.30;;;11.00;80.50;;;;;;5012115;28;20068;-77
2021/12/17 09:54:30;;;;;;;5.63;3.55;;;10.80;80.80;;;;;;5013888;28;20438;-89
2021/12/17 09:56:56;;;;;;;6.88;3.22;;;10.10;82.10;;;;;;5014944;28;20049;-79
2021/12/17 09:59:22;;;;;;;5.13;3.20;;;10.00;82.80;;;;;;5015008;28;20037;-77
2021/12/17 10:01:50;;;;;;;5.90;3.30;;;10.00;82.30;;;;;;5013033;28;20022;-78
2021/12/17 10:04:15;;;;;;;5.47;3.50;;;10.30;82.20;;;;;;5016985;28;20029;-77
2021/12/17 10:06:42;;;;;;;5.60;3.35;;;10.10;81.60;;;;;;5016425;28;20060;-77
2021/12/17 10:09:07;;;;;;;5.43;3.22;;;10.20;82.80;;;;;;5018981;28;20037;-77
2021/12/17 10:11:33;;;;;;;6.50;3.53;;;10.40;81.90;;;;;;5019016;28;20029;-78
2021/12/17 10:14:19;;;;;;;8.00;5.18;;;10.50;81.50;;;;;;5018271;28;20033;-77
2021/12/17 10:16:45;;;;;;;9.88;5.07;;;10.30;82.00;;;;;;5018057;28;20029;-77
2021/12/17 10:19:11;;;;;;;8.88;5.43;;;9.50;83.30;;;;;;5017556;28;20071;-77
2021/12/17 10:21:45;;;;;;;7.22;4.53;;;9.60;84.50;;;;;;5015768;28;20026;-76
2021/12/17 10:24:21;;;;;;;9.30;6.05;;;10.10;82.60;;;;;;5018493;28;20022;-77
2021/12/17 10:26:48;;;;;;;7.35;5.13;;;10.10;83.00;;;;;;5033070;28;20041;-77
2021/12/17 10:29:21;;;;;;;9.32;6.53;;;10.10;82.50;;;;;;5016814;28;20050;-76
2021/12/17 10:31:56;;;;;;;9.63;5.93;;;9.50;84.20;;;;;;4997959;28;20169;-77
2021/12/17 10:34:24;;;;;;;11.25;6.65;;;9.80;84.50;;;;;;5012404;28;20037;-77
2021/12/17 10:36:50;;;;;;;8.98;5.55;;;9.90;83.30;;;;;;5016491;28;20871;-76
2021/12/17 10:39:30;;;;;;;8.73;5.72;;;9.90;84.00;;;;;;5017005;28;20045;-76
2021/12/17 10:41:56;;;;;;;7.95;4.93;;;10.20;83.50;;;;;;5014478;28;20033;-76
2021/12/17 10:44:23;;;;;;;11.35;5.55;;;10.70;81.50;;;;;;5017872;28;20030;-76
2021/12/17 10:49:57;;;;;;;10.90;6.50;;;10.60;81.70;;;;;;5017988;28;20025;-77
2021/12/17 10:52:38;;;;;;;9.52;5.88;;;10.20;82.00;;;;;;5014554;28;20030;-76
2021/12/17 10:55:13;;;;;;;13.13;6.60;;;9.50;84.10;;;;;;5017201;28;20076;-76
2021/12/17 10:57:39;;;;;;;10.75;7.05;;;9.30;85.30;;;;;;5016591;28;20026;-76
2021/12/17 11:00:08;;;;;;;12.00;8.10;;;8.90;85.60;;;;;;5004164;28;20033;-76
2021/12/17 11:02:34;;;;;;;10.93;7.30;;;8.50;87.40;;;;;;5004425;28;20300;-76
2021/12/17 11:05:14;;;;;;;11.48;7.97;;;8.30;88.00;;;;;;5016689;28;20036;-76
2021/12/17 11:07:44;;;;;;;10.95;7.63;;;8.10;88.70;;;;;;5016571;28;20048;-76
2021/12/17 11:10:09;;;;;;;12.73;8.35;;;8.50;89.00;;;;;;5016234;28;20025;-76
2021/12/17 11:12:37;;;;;;;13.43;8.35;;;8.80;87.60;;;;;;5008248;28;20067;-76
2021/12/17 11:15:19;;;;;;;15.27;9.60;;;8.70;87.20;;;;;;5015374;28;20079;-76
2021/12/17 11:17:56;;;;;;;13.57;8.77;;;8.80;87.60;;;;;;5001756;28;20031;-78
2021/12/17 11:20:34;;;;;;;15.32;8.95;;;8.90;87.10;;;;;;5015024;28;20451;-78
2021/12/17 11:23:08;;;;;;;12.55;7.72;;;8.80;87.00;;;;;;5015234;28;20037;-79
2021/12/17 11:25:37;;;;;;;17.38;10.95;;;8.70;87.50;;;;;;5013660;28;20092;-76
2021/12/17 11:28:05;;;;;;;13.45;8.65;;;8.50;88.10;;;;;;5014915;28;20046;-78
2021/12/17 11:30:34;;;;;;;13.20;8.45;;;8.50;89.30;;;;;;5017027;28;20044;-78
2021/12/17 11:33:04;;;;;;;12.05;8.10;;;8.70;89.80;;;;;;5011566;28;20429;-77
2021/12/17 11:35:33;;;;;;;12.15;8.32;;;9.10;88.30;;;;;;5011766;28;20053;-77
2021/12/17 11:38:03;;;;;;;12.45;8.65;;;9.70;86.70;;;;;;5001216;28;20471;-78
2021/12/17 11:40:45;;;;;;;32.15;25.35;;;10.20;85.90;;;;;;5008645;28;20045;-78
2021/12/17 11:43:47;;;;;;;12.32;8.70;;;10.70;84.60;;;;;;5007003;28;20431;-78
2021/12/17 11:46:14;;;;;;;13.13;8.10;;;10.80;83.60;;;;;;5011874;28;20091;-75
2021/12/17 11:48:50;;;;;;;12.98;8.95;;;11.20;83.20;;;;;;5008359;28;20023;-74
2021/12/17 11:51:18;;;;;;;14.35;9.60;;;11.00;82.00;;;;;;5015076;28;20037;-74
2021/12/17 11:53:52;;;;;;;13.75;9.70;;;10.30;83.40;;;;;;5014581;28;20353;-74
2021/12/17 11:56:43;;;;;;;13.85;8.85;;;10.30;83.90;;;;;;5016328;28;20030;-74
2021/12/17 11:59:40;;;;;;;11.75;8.38;;;10.00;85.60;;;;;;5015014;28;20113;-75
2021/12/17 12:02:06;;;;;;;13.40;9.23;;;9.80;86.00;;;;;;5002745;28;20030;-74
2021/12/17 12:04:34;;;;;;;14.80;8.95;;;10.30;85.00;;;;;;5016481;28;20022;-74
2021/12/17 12:07:16;;;;;;;10.45;7.88;;;10.70;83.30;;;;;;5015028;28;20022;-74
2021/12/17 12:09:57;;;;;;;12.05;8.48;;;10.90;82.60;;;;;;5015891;28;20034;-75
2021/12/17 12:12:34;;;;;;;11.57;8.00;;;11.10;82.40;;;;;;5016232;28;20068;-74
2021/12/17 12:15:19;;;;;;;13.10;8.00;;;10.80;81.40;;;;;;5010090;28;20458;-74
2021/12/17 12:17:57;;;;;;;13.32;8.30;;;10.20;83.70;;;;;;5016109;28;20054;-75
2021/12/17 12:20:39;;;;;;;12.27;8.23;;;10.10;84.50;;;;;;5015910;28;20037;-75
2021/12/17 12:23:31;;;;;;;12.52;8.63;;;10.10;84.80;;;;;;5005034;28;20033;-75
2021/12/17 12:26:03;;;;;;;11.93;8.02;;;10.30;83.60;;;;;;5008438;28;20037;-74
2021/12/17 12:28:47;;;;;;;13.27;8.85;;;10.20;84.00;;;;;;5015018;28;20076;-74
2021/12/17 12:31:13;;;;;;;11.77;8.52;;;10.10;84.60;;;;;;5015122;28;20030;-74
2021/12/17 12:34:00;;;;;;;12.70;8.40;;;10.30;84.10;;;;;;5015390;28;20115;-74
2021/12/17 12:36:44;;;;;;;11.30;7.80;;;10.20;83.40;;;;;;5012083;28;20018;-74
2021/12/17 12:39:30;;;;;;;10.82;7.45;;;9.90;84.00;;;;;;5008038;28;20054;-74
2021/12/17 12:42:21;;;;;;;12.18;8.85;;;10.00;84.90;;;;;;5015668;28;20080;-74
2021/12/17 12:44:47;;;;;;;12.45;8.52;;;9.90;84.50;;;;;;5015169;28;20026;-74
2021/12/17 12:47:31;;;;;;;12.68;9.00;;;9.70;85.60;;;;;;5006143;28;20083;-75
2021/12/17 12:50:09;;;;;;;11.25;8.52;;;9.40;86.20;;;;;;5015363;28;20022;-75
2021/12/17 12:52:43;;;;;;;12.15;8.57;;;9.30;86.90;;;;;;5014390;28;20030;-74
2021/12/17 12:55:39;;;;;;;15.20;9.55;;;9.50;86.60;;;;;;5008876;28;20061;-75
2021/12/17 12:58:10;;;;;;;17.48;9.90;;;9.20;86.50;;;;;;5007077;28;20022;-75
2021/12/17 13:00:44;;;;;;;14.80;10.10;;;8.60;88.10;;;;;;5013573;28;20423;-75
2021/12/17 13:03:14;;;;;;;;;;;8.30;88.80;;;;;;5014731;28;20040;-76
2021/12/17 13:05:46;;;;;;;13.68;9.75;;;8.10;89.90;;;;;;5015355;28;19916;-76
2021/12/17 13:08:15;;;;;;;14.98;9.65;;;8.10;90.30;;;;;;5013498;28;20034;-75
2021/12/17 13:10:46;;;;;;;13.43;9.10;;;8.20;90.00;;;;;;5011640;28;20434;-76
2021/12/17 13:13:30;;;;;;;14.00;9.65;;;8.10;90.00;;;;;;5001641;28;20037;-76
2021/12/17 13:21:42;;;;;;;13.20;9.02;;;7.90;90.30;;;;;;5015888;28;20026;-77
2021/12/17 13:24:20;;;;;;;14.30;9.40;;;8.00;90.20;;;;;;5015636;28;20457;-76
2021/12/17 13:26:53;;;;;;;14.18;9.00;;;8.10;89.60;;;;;;5015569;28;20057;-76
2021/12/17 13:29:30;;;;;;;16.70;8.67;;;8.20;89.00;;;;;;5015498;28;20053;-77
2021/12/17 13:32:12;;;;;;;12.90;8.52;;;8.30;88.50;;;;;;5015684;28;20268;-75
2021/12/17 13:34:45;;;;;;;16.02;8.82;;;8.10;88.50;;;;;;5015864;28;20034;-76
2021/12/17 13:37:19;;;;;;;14.75;9.65;;;8.00;88.70;;;;;;5014279;28;20089;-75
2021/12/17 13:39:57;;;;;;;12.82;8.80;;;8.00;89.40;;;;;;5017697;28;20322;-76
2021/12/17 13:42:29;;;;;;;14.85;9.63;;;7.90;90.20;;;;;;5019087;28;20359;-77
2021/12/17 13:44:59;;;;;;;12.45;8.73;;;7.80;90.40;;;;;;5019295;28;20407;-75
2021/12/17 13:47:28;;;;;;;13.52;9.38;;;7.80;91.40;;;;;;5018140;28;20373;-75
2021/12/17 13:50:19;;;;;;;12.55;9.10;;;7.90;90.70;;;;;;5019322;28;20049;-75
2021/12/17 13:52:55;;;;;;;13.68;9.52;;;7.80;89.90;;;;;;5017041;28;20121;-76
2021/12/17 13:55:34;;;;;;;16.33;9.65;;;7.70;90.70;;;;;;5019209;28;20072;-75
2021/12/17 13:58:02;;;;;;;15.50;10.55;;;7.40;91.30;;;;;;5017791;28;20373;-75
2021/12/17 14:00:37;;;;;;;20.98;10.38;;;7.10;91.90;;;;;;5019349;28;20105;-75
2021/12/17 14:03:04;;;;;;;14.80;9.60;;;6.90;93.20;;;;;;5018187;28;20030;-75
2021/12/17 14:05:40;;;;;;;14.35;10.15;;;6.80;93.50;;;;;;5019000;28;20021;-75
2021/12/17 14:08:09;;;;;;;16.42;10.95;;;6.60;93.90;;;;;;5017611;28;20037;-75
2021/12/17 14:10:38;;;;;;;13.15;9.27;;;6.30;94.70;;;;;;5018974;28;20026;-75
2021/12/17 14:13:14;;;;;;;14.77;9.93;;;6.40;95.60;;;;;;5018607;28;20080;-77
2021/12/17 14:15:43;;;;;;;14.25;9.50;;;6.40;95.30;;;;;;5017879;28;20311;-77
2021/12/17 14:18:10;;;;;;;13.55;9.43;;;6.50;95.40;;;;;;5018717;28;20419;-77
2021/12/17 14:20:42;;;;;;;15.93;10.00;;;6.40;95.00;;;;;;5017389;28;20529;-76
2021/12/17 14:23:29;;;;;;;16.83;10.52;;;6.30;95.70;;;;;;5017094;28;20034;-76
2021/12/17 14:25:56;;;;;;;18.50;10.10;;;6.30;95.90;;;;;;5017898;28;20050;-77
2021/12/17 14:28:25;;;;;;;14.05;9.60;;;6.20;95.80;;;;;;5018186;28;20435;-77
2021/12/17 14:31:15;;;;;;;15.35;9.85;;;6.20;96.20;;;;;;5018402;28;20042;-77
2021/12/17 14:34:01;;;;;;;15.90;10.07;;;6.20;96.00;;;;;;5017188;28;20022;-76
2021/12/17 14:36:38;;;;;;;15.95;10.43;;;6.30;96.40;;;;;;5018641;28;20084;-76
2021/12/17 14:39:09;;;;;;;13.63;9.02;;;6.20;96.30;;;;;;5017846;28;20080;-76
2021/12/17 14:41:59;;;;;;;15.65;10.07;;;6.10;96.00;;;;;;5015170;28;20021;-76
2021/12/17 15:05:37;;;;;;;13.75;9.38;;;5.40;98.00;;;;;;5017655;28;20034;-75
2021/12/17 15:08:03;;;;;;;15.15;10.57;;;5.20;98.00;;;;;;5015464;28;20431;-76
2021/12/17 15:10:29;;;;;;;14.55;9.93;;;4.90;98.00;;;;;;5015700;28;20084;-76
2021/12/17 15:12:59;;;;;;;15.30;9.98;;;4.60;98.00;;;;;;5016324;28;20036;-75
2021/12/17 15:15:31;;;;;;;15.02;10.75;;;4.40;98.00;;;;;;5015989;28;20446;-76
2021/12/17 15:17:58;;;;;;;13.50;9.40;;;4.20;98.00;;;;;;5017393;28;20300;-76
2021/12/17 15:20:31;;;;;;;17.63;10.50;;;4.10;98.00;;;;;;5016517;28;20444;-76
2021/12/17 15:22:59;;;;;;;17.50;11.27;;;3.90;98.00;;;;;;5016057;28;20439;-75
2021/12/17 15:25:26;;;;;;;14.60;9.30;;;3.70;98.00;;;;;;5017334;28;20021;-77
2021/12/17 15:27:52;;;;;;;17.27;11.00;;;3.50;98.00;;;;;;5015689;28;20378;-74
2021/12/17 15:30:24;;;;;;;16.50;10.55;;;3.30;98.00;;;;;;5017206;28;20025;-76
2021/12/17 15:32:53;;;;;;;17.13;10.68;;;3.10;98.00;;;;;;5014746;28;20045;-74
2021/12/17 15:35:23;;;;;;;18.85;11.43;;;3.00;98.00;;;;;;5017013;28;20026;-75
2021/12/17 15:37:49;;;;;;;19.08;11.55;;;2.90;98.00;;;;;;5012388;28;20029;-74
2021/12/17 15:40:16;;;;;;;16.95;11.95;;;2.70;98.00;;;;;;5016140;28;20033;-75
2021/12/17 15:42:42;;;;;;;23.92;14.50;;;2.60;98.00;;;;;;5017216;28;20370;-76
2021/12/17 15:45:09;;;;;;;22.35;13.57;;;2.40;98.00;;;;;;5004574;28;20330;-75
2021/12/17 15:47:36;;;;;;;20.90;13.40;;;2.30;98.00;;;;;;4996462;28;20032;-75
2021/12/17 15:50:04;;;;;;;27.70;17.67;;;2.10;98.00;;;;;;5007679;28;20038;-76
2021/12/17 15:52:30;;;;;;;20.15;14.38;;;2.00;98.00;;;;;;5014734;28;20108;-75
2021/12/17 15:54:56;;;;;;;24.95;14.50;;;2.00;98.00;;;;;;5016735;28;20033;-75
2021/12/17 15:57:22;;;;;;;20.02;13.02;;;1.90;98.00;;;;;;5017034;28;20414;-75
2021/12/17 15:59:52;;;;;;;25.02;15.13;;;1.90;98.00;;;;;;5015717;28;20030;-75
2021/12/17 16:02:18;;;;;;;156.60;107.20;;;1.90;98.00;;;;;;5016382;28;20488;-76
2021/12/17 16:04:46;;;;;;;39.40;27.70;;;1.90;98.00;;;;;;5016804;28;20030;-76
2021/12/17 16:07:13;;;;;;;20.67;13.75;;;1.90;98.00;;;;;;5015867;28;20467;-75
2021/12/17 16:22:49;;;;;;;45.90;31.08;;;2.30;97.80;;;;;;5015052;28;20084;-76